createdAt,value
2023-05-13T00:00:44.938Z,100425.98
2023-05-13T00:03:12.575Z,100418.48
2023-05-13T00:05:40.589Z,100410.94
2023-05-13T00:08:08.217Z,100404.82
2023-05-13T00:10:35.658Z,100405.50
2023-05-13T00:13:02.915Z,100399.92
2023-05-13T00:15:30.201Z,100398.31
2023-05-13T00:17:57.658Z,100393.67
2023-05-13T00:20:25.191Z,100388.13
2023-05-13T00:22:52.536Z,100386.32
2023-05-13T00:25:19.957Z,100378.61
2023-05-13T00:27:47.120Z,100376.12
2023-05-13T00:30:14.714Z,100369.16
2023-05-13T00:32:42.303Z,100368.41
2023-05-13T00:35:10.130Z,100364.27
2023-05-13T00:37:37.852Z,100367.95
2023-05-13T00:40:05.369Z,100360.34
2023-05-13T00:42:32.811Z,100361.77
2023-05-13T00:45:00.116Z,100363.27
2023-05-13T00:47:27.591Z,100359.58
2023-05-13T00:49:54.995Z,100360.30
2023-05-13T00:52:22.425Z,100359.45
2023-05-13T00:54:49.651Z,100359.17
2023-05-13T00:57:17.006Z,100360.07
2023-05-13T00:59:44.518Z,100369.73
2023-05-13T01:02:24.549Z,100386.98
2023-05-13T01:05:13.480Z,100384.67
2023-05-13T01:07:49.144Z,100378.98
2023-05-13T01:10:22.560Z,100370.66
2023-05-13T01:12:51.457Z,100355.90
2023-05-13T01:15:23.822Z,100337.90
2023-05-13T01:18:07.895Z,100328.62
2023-05-13T01:20:35.432Z,100320.48
2023-05-13T01:23:04.400Z,100309.36
2023-05-13T01:25:31.921Z,100292.84
2023-05-13T01:27:59.253Z,100280.59
2023-05-13T01:30:27.049Z,100258.81
2023-05-13T01:32:54.594Z,100237.02
2023-05-13T01:35:21.919Z,100218.88
2023-05-13T01:37:50.394Z,100195.44
2023-05-13T01:40:31.776Z,100177.84
2023-05-13T01:43:02.673Z,100162.79
2023-05-13T01:45:30.453Z,100162.31
2023-05-13T01:47:58.397Z,100168.48
2023-05-13T01:50:26.648Z,100164.72
2023-05-13T01:52:54.233Z,100158.17
2023-05-13T01:55:22.088Z,100144.70
2023-05-13T01:57:49.994Z,100139.62
2023-05-13T02:00:18.921Z,100124.27
2023-05-13T02:02:49.349Z,100111.02
2023-05-13T02:05:17.217Z,100102.89
2023-05-13T02:07:45.102Z,100096.00
2023-05-13T02:10:12.957Z,100083.77
2023-05-13T02:12:40.533Z,100068.06
2023-05-13T02:15:08.545Z,100058.28
2023-05-13T02:17:35.992Z,100049.46
2023-05-13T02:20:04.334Z,100042.14
2023-05-13T02:22:31.858Z,100036.59
2023-05-13T02:24:59.198Z,100030.80
2023-05-13T02:27:27.150Z,100026.94
2023-05-13T02:29:54.739Z,100024.48
2023-05-13T02:32:22.511Z,100024.66
2023-05-13T02:34:50.146Z,100021.66
2023-05-13T02:37:17.568Z,100016.12
2023-05-13T02:39:49.279Z,100013.64
2023-05-13T02:42:18.171Z,99998.23
2023-05-13T02:44:46.236Z,99989.88
2023-05-13T02:47:13.877Z,99970.22
2023-05-13T02:49:41.160Z,99963.33
2023-05-13T02:52:08.600Z,99951.27
2023-05-13T02:54:36.737Z,99943.77
2023-05-13T02:57:04.701Z,99943.21
2023-05-13T02:59:32.053Z,99941.03
2023-05-13T03:01:59.540Z,99940.50
2023-05-13T03:04:27.280Z,99945.58
2023-05-13T03:06:54.769Z,99948.70
2023-05-13T03:09:22.134Z,99958.83
2023-05-13T03:11:49.382Z,99969.84
2023-05-13T03:14:16.825Z,99983.02
2023-05-13T03:16:45.086Z,100004.27
2023-05-13T03:19:14.321Z,100033.86
2023-05-13T03:21:41.926Z,100072.73
2023-05-13T03:24:11.373Z,100132.12
2023-05-13T03:26:38.801Z,100218.63
2023-05-13T03:29:06.291Z,100310.55
2023-05-13T03:31:35.037Z,100387.42
2023-05-13T03:34:03.706Z,100450.05
2023-05-13T03:36:32.704Z,100503.48
2023-05-13T03:39:00.554Z,100485.99
2023-05-13T03:41:28.500Z,100482.70
2023-05-13T03:43:57.530Z,100509.92
2023-05-13T03:46:27.558Z,100528.55
2023-05-13T03:48:56.013Z,100545.09
2023-05-13T03:51:23.665Z,100553.46
2023-05-13T03:53:51.274Z,100563.30
2023-05-13T03:56:18.763Z,100574.11
2023-05-13T03:58:46.127Z,100572.77
2023-05-13T04:01:13.396Z,100572.02
2023-05-13T04:03:43.074Z,100572.11
2023-05-13T04:06:10.374Z,100574.55
2023-05-13T04:08:37.996Z,100576.05
2023-05-13T04:11:05.284Z,100580.30
2023-05-13T04:13:36.278Z,100581.19
2023-05-13T04:16:04.080Z,100583.87
2023-05-13T04:18:31.800Z,100589.92
2023-05-13T04:20:59.235Z,100590.90
2023-05-13T04:23:26.745Z,100595.73
2023-05-13T04:25:54.189Z,100597.70
2023-05-13T04:28:21.808Z,100599.11
2023-05-13T04:30:50.581Z,100608.27
2023-05-13T04:33:18.338Z,100615.77
2023-05-13T04:35:48.124Z,100622.81
2023-05-13T04:38:15.817Z,100625.09
2023-05-13T04:40:44.663Z,100628.38
2023-05-13T04:43:14.359Z,100632.15
2023-05-13T04:45:48.029Z,100628.84
2023-05-13T04:48:16.197Z,100627.41
2023-05-13T04:50:47.183Z,100626.84
2023-05-13T04:53:16.113Z,100630.73
2023-05-13T04:55:48.091Z,100631.20
2023-05-13T04:58:15.603Z,100635.95
2023-05-13T05:00:43.099Z,100634.39
2023-05-13T05:03:11.085Z,100632.35
2023-05-13T05:05:40.323Z,100631.31
2023-05-13T05:08:09.386Z,100631.45
2023-05-13T05:10:37.865Z,100630.50
2023-05-13T05:13:05.459Z,100633.92
2023-05-13T05:15:33.796Z,100634.98
2023-05-13T05:18:02.492Z,100636.62
2023-05-13T05:20:31.280Z,100638.69
2023-05-13T05:23:00.602Z,100643.48
2023-05-13T05:25:29.641Z,100630.00
2023-05-13T05:27:57.467Z,100626.03
2023-05-13T05:30:26.286Z,100632.48
2023-05-13T05:33:01.677Z,100633.73
2023-05-13T05:35:29.472Z,100629.61
2023-05-13T05:37:57.093Z,100630.11
2023-05-13T05:40:25.266Z,100639.67
2023-05-13T05:42:52.685Z,100646.11
2023-05-13T05:45:20.911Z,100645.46
2023-05-13T05:47:48.342Z,100651.44
2023-05-13T05:50:16.853Z,100651.64
2023-05-13T05:52:45.474Z,100655.13
2023-05-13T05:55:14.004Z,100655.61
2023-05-13T05:57:41.449Z,100663.03
2023-05-13T06:00:10.638Z,100667.05
2023-05-13T06:02:42.590Z,100667.71
2023-05-13T06:05:10.618Z,100666.08
2023-05-13T06:07:41.791Z,100670.23
2023-05-13T06:10:09.892Z,100673.24
2023-05-13T06:12:37.305Z,100675.71
2023-05-13T06:15:06.774Z,100676.34
2023-05-13T06:17:34.347Z,100683.90
2023-05-13T06:20:01.866Z,100684.23
2023-05-13T06:22:29.207Z,100684.59
2023-05-13T06:24:56.666Z,100688.15
2023-05-13T06:27:24.296Z,100689.33
2023-05-13T06:29:51.753Z,100692.37
2023-05-13T06:32:20.360Z,100698.81
2023-05-13T06:34:48.732Z,100700.16
2023-05-13T06:37:16.114Z,100701.48
2023-05-13T06:39:44.007Z,100707.86
2023-05-13T06:42:12.979Z,100705.86
2023-05-13T06:44:46.503Z,100700.80
2023-05-13T06:47:16.214Z,100697.16
2023-05-13T06:49:44.707Z,100691.05
2023-05-13T06:52:12.492Z,100685.84
2023-05-13T06:54:40.792Z,100687.83
2023-05-13T06:57:08.563Z,100686.06
2023-05-13T06:59:36.255Z,100687.54
2023-05-13T07:02:04.683Z,100692.14
2023-05-13T07:04:32.323Z,100698.42
2023-05-13T07:06:59.544Z,100694.95
2023-05-13T07:09:27.620Z,100696.04
2023-05-13T07:11:55.020Z,100695.68
2023-05-13T07:14:22.454Z,100693.23
2023-05-13T07:16:50.093Z,100697.66
2023-05-13T07:19:17.662Z,100694.20
2023-05-13T07:21:45.060Z,100692.80
2023-05-13T07:24:12.572Z,100683.33
2023-05-13T07:26:39.977Z,100681.69
2023-05-13T07:29:07.569Z,100676.60
2023-05-13T07:31:34.942Z,100673.02
2023-05-13T07:34:02.346Z,100675.29
2023-05-13T07:36:29.664Z,100675.59
2023-05-13T07:38:57.050Z,100668.77
2023-05-13T07:41:24.500Z,100668.36
2023-05-13T07:43:52.104Z,100666.85
2023-05-13T07:46:22.058Z,100669.58
2023-05-13T07:48:49.572Z,100667.20
2023-05-13T07:51:18.656Z,100663.58
2023-05-13T07:53:47.453Z,100661.17
2023-05-13T07:56:14.847Z,100664.89
2023-05-13T07:58:42.313Z,100661.11
2023-05-13T08:01:09.756Z,100669.94
2023-05-13T08:03:37.467Z,100659.84
2023-05-13T08:06:06.064Z,100660.88
2023-05-13T08:08:33.472Z,100652.68
2023-05-13T08:11:00.907Z,100654.13
2023-05-13T08:13:28.282Z,100650.81
2023-05-13T08:15:55.995Z,100646.67
2023-05-13T08:18:23.598Z,100644.66
2023-05-13T08:20:51.058Z,100648.66
2023-05-13T08:23:18.293Z,100649.30
2023-05-13T08:25:45.885Z,100647.70
2023-05-13T08:28:13.394Z,100643.63
2023-05-13T08:30:44.610Z,100642.60
2023-05-13T08:33:12.273Z,100651.03
2023-05-13T08:35:39.683Z,100647.44
2023-05-13T08:38:07.011Z,100643.21
2023-05-13T08:40:37.029Z,100629.81
2023-05-13T08:43:05.103Z,100628.71
2023-05-13T08:45:33.391Z,100617.33
2023-05-13T08:50:29.771Z,100599.13
2023-05-13T08:52:58.353Z,100593.84
2023-05-13T08:55:25.760Z,100600.07
2023-05-13T08:57:53.314Z,100595.91
2023-05-13T09:00:21.872Z,100593.14
2023-05-13T09:02:51.276Z,100599.23
2023-05-13T09:05:18.828Z,100592.87
2023-05-13T09:07:46.418Z,100594.57
2023-05-13T09:10:13.861Z,100583.44
2023-05-13T09:12:48.615Z,100590.45
2023-05-13T09:15:17.913Z,100583.91
2023-05-13T09:17:48.096Z,100578.73
2023-05-13T09:20:16.867Z,100575.57
2023-05-13T09:23:06.721Z,100566.94
2023-05-13T09:25:34.272Z,100573.48
2023-05-13T09:28:03.144Z,100554.63
2023-05-13T09:30:32.987Z,100552.11
2023-05-13T09:33:13.858Z,100553.70
2023-05-13T09:35:45.366Z,100561.97
2023-05-13T09:38:20.158Z,100563.50
2023-05-13T09:41:02.171Z,100555.70
2023-05-13T09:43:32.956Z,100551.40
2023-05-13T09:46:04.548Z,100542.24
2023-05-13T09:48:34.547Z,100554.73
2023-05-13T09:51:01.530Z,100550.97
2023-05-13T09:53:28.586Z,100549.11
2023-05-13T09:55:59.140Z,100548.40
2023-05-13T09:58:28.232Z,100557.61
2023-05-13T10:00:57.092Z,100552.52
2023-05-13T10:03:24.574Z,100555.86
2023-05-13T10:05:52.708Z,100553.10
2023-05-13T10:08:20.370Z,100551.02
2023-05-13T10:10:47.854Z,100548.41
2023-05-13T10:13:16.511Z,100544.52
2023-05-13T10:15:51.375Z,100535.48
2023-05-13T10:18:19.812Z,100532.94
2023-05-13T10:20:47.584Z,100529.77
2023-05-13T10:23:14.889Z,100528.88
2023-05-13T10:25:42.390Z,100525.73
2023-05-13T10:28:09.872Z,100521.39
2023-05-13T10:30:37.261Z,100513.18
2023-05-13T10:33:04.741Z,100512.14
2023-05-13T10:35:37.535Z,100517.39
2023-05-13T10:38:17.159Z,100514.97
2023-05-13T10:40:53.983Z,100511.43
2023-05-13T10:43:22.764Z,100508.06
2023-05-13T10:45:51.561Z,100518.73
2023-05-13T10:48:19.113Z,100526.53
2023-05-13T10:50:56.497Z,100524.29
2023-05-13T10:53:25.531Z,100522.95
2023-05-13T10:55:54.699Z,100531.40
2023-05-13T10:58:24.779Z,100520.41
2023-05-13T11:00:52.368Z,100517.89
2023-05-13T11:03:22.126Z,100511.80
2023-05-13T11:06:29.204Z,100517.10
2023-05-13T11:08:56.593Z,100519.69
2023-05-13T11:11:33.370Z,100516.52
2023-05-13T11:14:09.996Z,100510.73
2023-05-13T11:16:37.929Z,100508.55
2023-05-13T11:19:18.572Z,100501.88
2023-05-13T11:21:55.062Z,100489.60
2023-05-13T11:24:22.607Z,100475.57
2023-05-13T11:26:57.421Z,100480.52
2023-05-13T11:29:31.963Z,100482.47
2023-05-13T11:32:00.816Z,100486.54
2023-05-13T11:34:28.491Z,100473.66
2023-05-13T11:37:05.298Z,100480.05
2023-05-13T11:39:32.867Z,100479.77
2023-05-13T11:42:01.962Z,100477.34
2023-05-13T11:44:31.760Z,100479.48
2023-05-13T11:47:06.444Z,100474.04
2023-05-13T11:49:38.944Z,100479.52
2023-05-13T11:52:09.038Z,100473.67
2023-05-13T11:54:48.690Z,100467.33
2023-05-13T11:57:26.445Z,100467.10
2023-05-13T11:59:55.003Z,100464.09
2023-05-13T12:02:26.784Z,100463.24
2023-05-13T12:04:54.398Z,100454.51
2023-05-13T12:07:25.117Z,100468.10
2023-05-13T12:09:54.344Z,100466.73
2023-05-13T12:12:21.917Z,100460.87
2023-05-13T12:14:53.224Z,100471.31
2023-05-13T12:17:20.815Z,100456.77
2023-05-13T12:20:07.479Z,100457.01
2023-05-13T12:22:35.842Z,100460.77
2023-05-13T12:25:42.396Z,100461.20
2023-05-13T12:28:45.211Z,100455.35
2023-05-13T12:31:16.386Z,100459.79
2023-05-13T12:33:44.499Z,100458.23
2023-05-13T12:36:21.375Z,100448.95
2023-05-13T12:39:07.472Z,100441.77
2023-05-13T12:41:36.406Z,100435.02
2023-05-13T12:44:10.187Z,100439.84
2023-05-13T12:46:37.909Z,100433.80
2023-05-13T12:49:06.254Z,100424.52
2023-05-13T12:51:34.087Z,100421.83
2023-05-13T12:54:01.928Z,100422.46
2023-05-13T12:56:29.286Z,100426.76
2023-05-13T12:58:56.729Z,100428.48
2023-05-13T13:01:24.134Z,100441.98
2023-05-13T13:03:51.807Z,100421.69
2023-05-13T13:06:19.365Z,100412.01
2023-05-13T13:08:46.819Z,100416.36
2023-05-13T13:11:20.364Z,100400.37
2023-05-13T13:13:48.487Z,100403.13
2023-05-13T13:16:15.796Z,100396.41
2023-05-13T13:18:43.242Z,100395.77
2023-05-13T13:21:10.778Z,100402.81
2023-05-13T13:23:38.438Z,100405.97
2023-05-13T13:26:05.973Z,100406.25
2023-05-13T13:28:33.728Z,100414.11
2023-05-13T13:31:01.318Z,100409.89
2023-05-13T13:33:28.910Z,100421.67
2023-05-13T13:35:56.413Z,100412.42
2023-05-13T13:38:23.851Z,100416.30
2023-05-13T13:40:51.339Z,100422.07
2023-05-13T13:43:19.750Z,100407.61
2023-05-13T13:45:47.181Z,100398.52
2023-05-13T13:48:14.648Z,100412.17
2023-05-13T13:50:42.020Z,100410.27
2023-05-13T13:53:09.376Z,100417.48
2023-05-13T13:55:36.686Z,100422.02
2023-05-13T13:58:04.550Z,100416.93
2023-05-13T14:00:32.045Z,100419.20
2023-05-13T14:02:59.602Z,100427.94
2023-05-13T14:05:27.101Z,100420.35
2023-05-13T14:07:56.054Z,100416.60
2023-05-13T14:10:23.636Z,100414.73
2023-05-13T14:12:51.230Z,100413.87
2023-05-13T14:15:18.597Z,100414.55
2023-05-13T14:17:45.958Z,100406.88
2023-05-13T14:20:13.422Z,100400.35
2023-05-13T14:22:40.906Z,100399.04
2023-05-13T14:25:09.514Z,100404.09
2023-05-13T14:27:36.965Z,100415.98
2023-05-13T14:30:05.606Z,100403.55
2023-05-13T14:32:33.902Z,100402.25
2023-05-13T14:35:01.389Z,100404.91
2023-05-13T14:37:28.874Z,100420.72
2023-05-13T14:39:56.295Z,100425.99
2023-05-13T14:42:23.737Z,100426.73
2023-05-13T14:44:51.167Z,100436.27
2023-05-13T14:47:19.629Z,100426.56
2023-05-13T14:49:47.054Z,100433.83
2023-05-13T14:52:14.353Z,100428.41
2023-05-13T14:54:41.630Z,100412.39
2023-05-13T14:57:08.951Z,100412.74
2023-05-13T14:59:36.343Z,100416.96
2023-05-13T15:02:03.971Z,100420.50
2023-05-13T15:04:31.355Z,100427.23
2023-05-13T15:06:59.450Z,100420.70
2023-05-13T15:09:27.062Z,100412.52
2023-05-13T15:11:54.445Z,100402.65
2023-05-13T15:14:25.985Z,100398.92
2023-05-13T15:16:53.761Z,100398.13
2023-05-13T15:19:21.224Z,100395.90
2023-05-13T15:21:48.631Z,100392.63
2023-05-13T15:24:16.061Z,100383.89
2023-05-13T15:26:43.641Z,100389.75
2023-05-13T15:29:11.018Z,100385.98
2023-05-13T15:31:38.378Z,100383.31
2023-05-13T15:34:06.022Z,100373.52
2023-05-13T15:36:34.606Z,100378.98
2023-05-13T15:39:02.747Z,100382.88
2023-05-13T15:41:30.416Z,100397.60
2023-05-13T15:43:57.758Z,100394.73
2023-05-13T15:46:25.939Z,100408.10
2023-05-13T15:48:53.439Z,100404.82
2023-05-13T15:51:21.376Z,100402.13
2023-05-13T15:53:48.856Z,100407.80
2023-05-13T15:56:16.107Z,100413.23
2023-05-13T15:58:43.484Z,100414.78
2023-05-13T16:01:11.214Z,100420.11
2023-05-13T16:03:38.836Z,100424.08
